sensor_id;sensor_type;location;lat;lon;timestamp;pressure;altitude;pressure_sealevel;temperature;humidity
5812;BME280;2932;52.400;9.558;2023-01-28T00:01:49;102241.31;;;7.28;56.31
5812;BME280;2932;52.400;9.558;2023-01-28T00:04:14;102234.84;;;7.48;56.44
5812;BME280;2932;52.400;9.558;2023-01-28T00:06:40;102241.75;;;7.45;55.75
5812;BME280;2932;52.400;9.558;2023-01-28T00:09:06;102241.13;;;7.58;55.45
5812;BME280;2932;52.400;9.558;2023-01-28T00:11:31;102231.91;;;7.34;55.85
5812;BME280;2932;52.400;9.558;2023-01-28T00:13:58;102246.78;;;7.33;55.96
5812;BME280;2932;52.400;9.558;2023-01-28T00:16:23;102235.06;;;7.17;56.15
5812;BME280;2932;52.400;9.558;2023-01-28T00:18:51;102232.78;;;7.24;56.28
5812;BME280;2932;52.400;9.558;2023-01-28T00:21:16;102230.25;;;7.33;55.96
5812;BME280;2932;52.400;9.558;2023-01-28T00:23:46;102230.22;;;7.38;56.12
5812;BME280;2932;52.400;9.558;2023-01-28T00:26:13;102217.66;;;7.22;56.36
5812;BME280;2932;52.400;9.558;2023-01-28T00:28:40;102224.41;;;7.45;55.98
5812;BME280;2932;52.400;9.558;2023-01-28T00:31:06;102226.72;;;7.27;56.00
5812;BME280;2932;52.400;9.558;2023-01-28T00:33:35;102230.81;;;7.35;56.07
5812;BME280;2932;52.400;9.558;2023-01-28T00:36:01;102237.91;;;7.46;56.21
5812;BME280;2932;52.400;9.558;2023-01-28T00:38:28;102228.03;;;7.35;55.95
5812;BME280;2932;52.400;9.558;2023-01-28T00:40:54;102232.16;;;7.38;56.15
5812;BME280;2932;52.400;9.558;2023-01-28T00:43:19;102231.53;;;7.51;56.07
5812;BME280;2932;52.400;9.558;2023-01-28T00:45:45;102219.22;;;7.38;55.84
5812;BME280;2932;52.400;9.558;2023-01-28T00:48:10;102233.44;;;7.55;55.91
5812;BME280;2932;52.400;9.558;2023-01-28T00:50:36;102234.06;;;7.42;56.48
5812;BME280;2932;52.400;9.558;2023-01-28T00:53:02;102231.81;;;7.49;56.40
5812;BME280;2932;52.400;9.558;2023-01-28T00:55:27;102235.38;;;7.55;56.32
5812;BME280;2932;52.400;9.558;2023-01-28T00:57:53;102224.94;;;7.47;56.39
5812;BME280;2932;52.400;9.558;2023-01-28T01:00:18;102230.13;;;7.53;56.35
5812;BME280;2932;52.400;9.558;2023-01-28T01:02:45;102236.19;;;7.55;56.24
5812;BME280;2932;52.400;9.558;2023-01-28T01:05:10;102231.84;;;7.44;56.72
5812;BME280;2932;52.400;9.558;2023-01-28T01:07:35;102224.63;;;7.53;56.07
5812;BME280;2932;52.400;9.558;2023-01-28T01:10:09;102219.97;;;7.49;56.08
5812;BME280;2932;52.400;9.558;2023-01-28T01:12:35;102227.13;;;7.50;56.22
5812;BME280;2932;52.400;9.558;2023-01-28T01:15:01;102222.50;;;7.40;56.27
5812;BME280;2932;52.400;9.558;2023-01-28T01:17:29;102222.84;;;7.28;55.77
5812;BME280;2932;52.400;9.558;2023-01-28T01:19:55;102221.41;;;7.41;55.82
5812;BME280;2932;52.400;9.558;2023-01-28T01:22:21;102219.78;;;7.35;56.30
5812;BME280;2932;52.400;9.558;2023-01-28T01:24:47;102215.38;;;7.34;56.04
5812;BME280;2932;52.400;9.558;2023-01-28T01:27:12;102216.72;;;7.42;55.64
5812;BME280;2932;52.400;9.558;2023-01-28T01:29:38;102218.34;;;7.48;55.45
5812;BME280;2932;52.400;9.558;2023-01-28T01:32:03;102231.56;;;7.46;55.41
5812;BME280;2932;52.400;9.558;2023-01-28T01:34:29;102232.41;;;7.41;55.44
5812;BME280;2932;52.400;9.558;2023-01-28T01:36:54;102228.09;;;7.25;55.37
5812;BME280;2932;52.400;9.558;2023-01-28T01:39:20;102242.91;;;7.39;55.73
5812;BME280;2932;52.400;9.558;2023-01-28T01:41:45;102232.59;;;7.16;55.78
5812;BME280;2932;52.400;9.558;2023-01-28T01:47:14;102235.59;;;7.19;55.80
5812;BME280;2932;52.400;9.558;2023-01-28T01:49:41;102238.53;;;7.33;55.70
5812;BME280;2932;52.400;9.558;2023-01-28T01:52:10;102232.91;;;7.04;55.86
5812;BME280;2932;52.400;9.558;2023-01-28T01:54:38;102228.78;;;7.07;56.37
5812;BME280;2932;52.400;9.558;2023-01-28T01:57:06;102230.75;;;6.96;56.06
5812;BME280;2932;52.400;9.558;2023-01-28T01:59:34;102244.75;;;7.05;55.66
5812;BME280;2932;52.400;9.558;2023-01-28T02:02:02;102242.19;;;7.18;55.57
5812;BME280;2932;52.400;9.558;2023-01-28T02:04:32;102239.38;;;7.28;55.35
5812;BME280;2932;52.400;9.558;2023-01-28T02:07:00;102234.72;;;7.24;55.77
5812;BME280;2932;52.400;9.558;2023-01-28T02:09:26;102241.88;;;7.25;56.00
5812;BME280;2932;52.400;9.558;2023-01-28T02:11:55;102246.81;;;7.28;55.53
5812;BME280;2932;52.400;9.558;2023-01-28T02:14:25;102244.06;;;7.23;56.00
5812;BME280;2932;52.400;9.558;2023-01-28T02:16:52;102251.22;;;7.29;55.91
5812;BME280;2932;52.400;9.558;2023-01-28T02:19:19;102246.53;;;7.29;55.97
5812;BME280;2932;52.400;9.558;2023-01-28T02:27:23;102251.13;;;7.44;55.01
5812;BME280;2932;52.400;9.558;2023-01-28T02:29:56;102244.00;;;7.38;55.31
5812;BME280;2932;52.400;9.558;2023-01-28T02:37:45;102246.63;;;7.14;56.25
5812;BME280;2932;52.400;9.558;2023-01-28T02:40:19;102241.59;;;7.21;56.14
5812;BME280;2932;52.400;9.558;2023-01-28T02:42:46;102239.31;;;7.39;55.66
5812;BME280;2932;52.400;9.558;2023-01-28T02:45:32;102236.31;;;7.35;55.54
5812;BME280;2932;52.400;9.558;2023-01-28T02:48:18;102235.22;;;7.31;55.63
5812;BME280;2932;52.400;9.558;2023-01-28T02:51:12;102235.75;;;7.38;55.55
5812;BME280;2932;52.400;9.558;2023-01-28T02:53:46;102244.50;;;7.45;55.33
5812;BME280;2932;52.400;9.558;2023-01-28T02:56:41;102233.31;;;7.31;55.33
5812;BME280;2932;52.400;9.558;2023-01-28T02:59:26;102237.66;;;7.38;55.67
5812;BME280;2932;52.400;9.558;2023-01-28T03:04:30;102235.72;;;7.43;55.35
5812;BME280;2932;52.400;9.558;2023-01-28T03:07:01;102228.31;;;7.39;55.52
5812;BME280;2932;52.400;9.558;2023-01-28T03:09:29;102231.06;;;7.39;55.47
5812;BME280;2932;52.400;9.558;2023-01-28T03:11:58;102232.75;;;7.29;55.31
5812;BME280;2932;52.400;9.558;2023-01-28T03:14:53;102235.75;;;7.33;55.27
5812;BME280;2932;52.400;9.558;2023-01-28T03:20:29;102222.84;;;7.28;55.67
5812;BME280;2932;52.400;9.558;2023-01-28T03:23:21;102218.94;;;7.40;55.64
5812;BME280;2932;52.400;9.558;2023-01-28T03:26:07;102214.78;;;7.42;55.51
5812;BME280;2932;52.400;9.558;2023-01-28T03:28:53;102209.53;;;7.46;55.36
5812;BME280;2932;52.400;9.558;2023-01-28T03:31:41;102209.03;;;6.89;55.81
5812;BME280;2932;52.400;9.558;2023-01-28T03:34:25;102202.66;;;6.99;56.03
5812;BME280;2932;52.400;9.558;2023-01-28T03:37:10;102215.00;;;7.12;55.55
5812;BME280;2932;52.400;9.558;2023-01-28T03:39:38;102216.41;;;7.04;55.08
5812;BME280;2932;52.400;9.558;2023-01-28T03:42:09;102222.72;;;7.05;55.32
5812;BME280;2932;52.400;9.558;2023-01-28T03:44:36;102234.25;;;7.12;54.89
5812;BME280;2932;52.400;9.558;2023-01-28T03:47:25;102231.41;;;7.27;54.47
5812;BME280;2932;52.400;9.558;2023-01-28T03:49:53;102223.53;;;7.10;55.01
5812;BME280;2932;52.400;9.558;2023-01-28T03:52:24;102233.75;;;6.99;54.61
5812;BME280;2932;52.400;9.558;2023-01-28T03:54:50;102235.00;;;7.22;54.12
5812;BME280;2932;52.400;9.558;2023-01-28T03:57:19;102237.41;;;7.34;54.43
5812;BME280;2932;52.400;9.558;2023-01-28T03:59:45;102234.63;;;7.39;54.33
5812;BME280;2932;52.400;9.558;2023-01-28T04:02:11;102236.50;;;7.49;54.15
5812;BME280;2932;52.400;9.558;2023-01-28T04:04:38;102230.81;;;7.30;54.16
5812;BME280;2932;52.400;9.558;2023-01-28T04:07:04;102242.81;;;7.05;55.05
5812;BME280;2932;52.400;9.558;2023-01-28T04:09:30;102246.09;;;7.12;55.14
5812;BME280;2932;52.400;9.558;2023-01-28T04:11:55;102247.91;;;7.27;54.76
5812;BME280;2932;52.400;9.558;2023-01-28T04:14:20;102252.91;;;7.20;54.84
5812;BME280;2932;52.400;9.558;2023-01-28T04:16:46;102250.53;;;6.98;55.28
5812;BME280;2932;52.400;9.558;2023-01-28T04:19:11;102253.16;;;7.23;55.32
5812;BME280;2932;52.400;9.558;2023-01-28T04:21:38;102261.75;;;7.17;54.84
5812;BME280;2932;52.400;9.558;2023-01-28T04:24:03;102256.59;;;6.95;54.44
5812;BME280;2932;52.400;9.558;2023-01-28T04:26:29;102270.34;;;7.00;54.68
5812;BME280;2932;52.400;9.558;2023-01-28T04:28:55;102267.84;;;7.03;54.27
5812;BME280;2932;52.400;9.558;2023-01-28T04:31:20;102267.91;;;6.93;54.74
5812;BME280;2932;52.400;9.558;2023-01-28T04:33:47;102262.94;;;6.95;54.00
5812;BME280;2932;52.400;9.558;2023-01-28T04:36:13;102266.97;;;7.18;54.10
5812;BME280;2932;52.400;9.558;2023-01-28T04:38:38;102272.84;;;6.96;54.74
5812;BME280;2932;52.400;9.558;2023-01-28T04:41:03;102263.97;;;6.25;54.47
5812;BME280;2932;52.400;9.558;2023-01-28T04:43:29;102264.16;;;6.69;53.92
5812;BME280;2932;52.400;9.558;2023-01-28T04:45:54;102265.69;;;6.90;53.65
5812;BME280;2932;52.400;9.558;2023-01-28T04:48:19;102260.75;;;6.87;53.83
5812;BME280;2932;52.400;9.558;2023-01-28T04:50:45;102266.00;;;6.84;54.31
5812;BME280;2932;52.400;9.558;2023-01-28T04:53:10;102269.81;;;6.98;54.52
5812;BME280;2932;52.400;9.558;2023-01-28T04:55:36;102278.59;;;7.00;54.46
5812;BME280;2932;52.400;9.558;2023-01-28T04:58:01;102272.56;;;6.98;54.83
5812;BME280;2932;52.400;9.558;2023-01-28T05:00:27;102269.75;;;7.13;54.97
5812;BME280;2932;52.400;9.558;2023-01-28T05:02:52;102267.81;;;7.14;54.91
5812;BME280;2932;52.400;9.558;2023-01-28T05:05:17;102271.69;;;7.08;54.97
5812;BME280;2932;52.400;9.558;2023-01-28T05:07:43;102274.16;;;7.14;55.10
5812;BME280;2932;52.400;9.558;2023-01-28T05:10:09;102268.94;;;7.13;55.31
5812;BME280;2932;52.400;9.558;2023-01-28T05:12:35;102279.09;;;7.17;55.28
5812;BME280;2932;52.400;9.558;2023-01-28T05:15:00;102273.63;;;7.07;55.12
5812;BME280;2932;52.400;9.558;2023-01-28T05:17:26;102276.34;;;7.12;55.46
5812;BME280;2932;52.400;9.558;2023-01-28T05:19:52;102288.09;;;7.28;55.07
5812;BME280;2932;52.400;9.558;2023-01-28T05:22:17;102275.38;;;7.37;54.65
5812;BME280;2932;52.400;9.558;2023-01-28T05:24:42;102264.97;;;7.29;54.65
5812;BME280;2932;52.400;9.558;2023-01-28T05:27:08;102262.06;;;7.05;54.89
5812;BME280;2932;52.400;9.558;2023-01-28T05:29:33;102274.59;;;7.31;54.57
5812;BME280;2932;52.400;9.558;2023-01-28T05:31:58;102258.88;;;7.37;54.50
5812;BME280;2932;52.400;9.558;2023-01-28T05:34:24;102252.25;;;7.38;54.29
5812;BME280;2932;52.400;9.558;2023-01-28T05:36:49;102247.06;;;7.31;54.46
5812;BME280;2932;52.400;9.558;2023-01-28T05:39:15;102263.28;;;7.38;54.88
5812;BME280;2932;52.400;9.558;2023-01-28T05:41:40;102263.56;;;7.36;54.79
5812;BME280;2932;52.400;9.558;2023-01-28T05:44:05;102264.44;;;7.27;54.93
5812;BME280;2932;52.400;9.558;2023-01-28T05:46:30;102262.03;;;7.15;55.04
5812;BME280;2932;52.400;9.558;2023-01-28T05:48:56;102265.13;;;6.98;54.87
5812;BME280;2932;52.400;9.558;2023-01-28T05:51:21;102265.69;;;6.95;55.07
5812;BME280;2932;52.400;9.558;2023-01-28T05:53:46;102266.22;;;6.97;55.39
5812;BME280;2932;52.400;9.558;2023-01-28T05:56:12;102256.34;;;6.91;55.19
5812;BME280;2932;52.400;9.558;2023-01-28T05:58:37;102253.94;;;6.80;54.80
5812;BME280;2932;52.400;9.558;2023-01-28T06:01:02;102256.69;;;6.80;53.97
5812;BME280;2932;52.400;9.558;2023-01-28T06:03:28;102261.94;;;6.76;53.88
5812;BME280;2932;52.400;9.558;2023-01-28T06:05:53;102261.88;;;6.86;53.68
5812;BME280;2932;52.400;9.558;2023-01-28T06:08:18;102253.97;;;6.69;53.67
5812;BME280;2932;52.400;9.558;2023-01-28T06:10:45;102262.94;;;6.95;53.36
5812;BME280;2932;52.400;9.558;2023-01-28T06:13:10;102265.97;;;6.94;53.51
5812;BME280;2932;52.400;9.558;2023-01-28T06:15:35;102271.19;;;7.00;53.06
5812;BME280;2932;52.400;9.558;2023-01-28T06:18:01;102269.53;;;6.94;53.42
5812;BME280;2932;52.400;9.558;2023-01-28T06:20:26;102272.56;;;6.93;53.11
5812;BME280;2932;52.400;9.558;2023-01-28T06:22:52;102268.44;;;6.95;53.13
5812;BME280;2932;52.400;9.558;2023-01-28T06:25:17;102265.88;;;7.19;52.56
5812;BME280;2932;52.400;9.558;2023-01-28T06:27:43;102261.84;;;6.96;52.63
5812;BME280;2932;52.400;9.558;2023-01-28T06:30:09;102261.16;;;7.20;52.74
5812;BME280;2932;52.400;9.558;2023-01-28T06:32:34;102271.66;;;7.18;52.53
5812;BME280;2932;52.400;9.558;2023-01-28T06:35:00;102276.34;;;7.17;52.70
5812;BME280;2932;52.400;9.558;2023-01-28T06:37:26;102270.56;;;7.19;52.60
5812;BME280;2932;52.400;9.558;2023-01-28T06:39:51;102258.78;;;7.03;52.97
5812;BME280;2932;52.400;9.558;2023-01-28T06:42:17;102264.50;;;7.17;53.05
5812;BME280;2932;52.400;9.558;2023-01-28T06:44:42;102265.94;;;7.04;53.50
5812;BME280;2932;52.400;9.558;2023-01-28T06:47:07;102266.50;;;7.01;53.30
5812;BME280;2932;52.400;9.558;2023-01-28T06:49:35;102275.13;;;6.74;54.19
5812;BME280;2932;52.400;9.558;2023-01-28T06:52:00;102268.47;;;6.85;54.23
5812;BME280;2932;52.400;9.558;2023-01-28T06:54:26;102278.59;;;7.00;53.72
5812;BME280;2932;52.400;9.558;2023-01-28T06:56:51;102274.56;;;6.77;53.84
5812;BME280;2932;52.400;9.558;2023-01-28T06:59:16;102273.41;;;6.93;53.66
5812;BME280;2932;52.400;9.558;2023-01-28T07:01:42;102278.91;;;6.88;53.49
5812;BME280;2932;52.400;9.558;2023-01-28T07:04:07;102278.97;;;6.73;54.08
5812;BME280;2932;52.400;9.558;2023-01-28T07:06:33;102280.91;;;6.73;54.41
5812;BME280;2932;52.400;9.558;2023-01-28T07:08:58;102277.81;;;6.84;54.34
5812;BME280;2932;52.400;9.558;2023-01-28T07:11:24;102269.00;;;6.92;53.87
5812;BME280;2932;52.400;9.558;2023-01-28T07:13:49;102273.97;;;6.85;53.82
5812;BME280;2932;52.400;9.558;2023-01-28T07:16:15;102278.88;;;7.03;53.89
5812;BME280;2932;52.400;9.558;2023-01-28T07:18:41;102287.38;;;7.07;53.90
5812;BME280;2932;52.400;9.558;2023-01-28T07:21:06;102291.50;;;7.10;54.10
5812;BME280;2932;52.400;9.558;2023-01-28T07:23:31;102281.66;;;6.93;54.61
5812;BME280;2932;52.400;9.558;2023-01-28T07:26:03;102277.31;;;6.77;54.42
5812;BME280;2932;52.400;9.558;2023-01-28T07:28:29;102279.44;;;6.95;54.20
5812;BME280;2932;52.400;9.558;2023-01-28T07:30:54;102280.00;;;6.92;54.09
5812;BME280;2932;52.400;9.558;2023-01-28T07:33:19;102275.41;;;7.32;53.96
5812;BME280;2932;52.400;9.558;2023-01-28T07:35:46;102286.28;;;7.08;54.40
5812;BME280;2932;52.400;9.558;2023-01-28T07:38:11;102284.94;;;6.95;54.82
5812;BME280;2932;52.400;9.558;2023-01-28T07:40:37;102283.06;;;6.81;55.02
5812;BME280;2932;52.400;9.558;2023-01-28T07:43:03;102296.72;;;7.11;54.38
5812;BME280;2932;52.400;9.558;2023-01-28T07:45:28;102282.78;;;6.87;54.74
5812;BME280;2932;52.400;9.558;2023-01-28T07:48:01;102284.50;;;6.63;54.77
5812;BME280;2932;52.400;9.558;2023-01-28T07:50:27;102283.47;;;6.39;54.74
5812;BME280;2932;52.400;9.558;2023-01-28T07:52:54;102290.63;;;5.94;55.19
5812;BME280;2932;52.400;9.558;2023-01-28T07:55:19;102290.88;;;6.33;55.23
5812;BME280;2932;52.400;9.558;2023-01-28T07:57:58;102284.47;;;6.78;54.42
5812;BME280;2932;52.400;9.558;2023-01-28T08:00:26;102286.78;;;6.25;54.57
5812;BME280;2932;52.400;9.558;2023-01-28T08:02:56;102295.56;;;6.27;54.75
5812;BME280;2932;52.400;9.558;2023-01-28T08:05:22;102306.53;;;6.02;54.66
5812;BME280;2932;52.400;9.558;2023-01-28T08:07:48;102291.66;;;5.67;54.72
5812;BME280;2932;52.400;9.558;2023-01-28T08:10:15;102307.56;;;5.50;55.42
5812;BME280;2932;52.400;9.558;2023-01-28T08:12:50;102317.47;;;5.56;55.36
5812;BME280;2932;52.400;9.558;2023-01-28T08:15:15;102317.31;;;5.11;55.92
5812;BME280;2932;52.400;9.558;2023-01-28T08:17:41;102320.25;;;4.52;56.65
5812;BME280;2932;52.400;9.558;2023-01-28T08:20:06;102318.66;;;4.61;57.29
5812;BME280;2932;52.400;9.558;2023-01-28T08:22:32;102322.22;;;4.56;57.23
5812;BME280;2932;52.400;9.558;2023-01-28T08:24:57;102321.41;;;4.61;56.79
5812;BME280;2932;52.400;9.558;2023-01-28T08:27:23;102346.78;;;4.88;57.00
5812;BME280;2932;52.400;9.558;2023-01-28T08:29:48;102332.50;;;4.76;57.27
5812;BME280;2932;52.400;9.558;2023-01-28T08:32:13;102341.00;;;5.37;56.26
5812;BME280;2932;52.400;9.558;2023-01-28T08:34:38;102344.75;;;5.93;55.76
5812;BME280;2932;52.400;9.558;2023-01-28T08:37:04;102345.31;;;6.16;56.26
5812;BME280;2932;52.400;9.558;2023-01-28T08:39:30;102361.50;;;6.58;56.42
5812;BME280;2932;52.400;9.558;2023-01-28T08:41:55;102364.44;;;7.02;55.89
5812;BME280;2932;52.400;9.558;2023-01-28T08:44:21;102345.72;;;7.14;54.79
5812;BME280;2932;52.400;9.558;2023-01-28T08:46:46;102349.94;;;7.51;53.98
5812;BME280;2932;52.400;9.558;2023-01-28T08:49:11;102374.59;;;7.76;53.25
5812;BME280;2932;52.400;9.558;2023-01-28T08:51:36;102374.78;;;7.95;53.27
5812;BME280;2932;52.400;9.558;2023-01-28T08:54:02;102377.69;;;8.09;52.54
5812;BME280;2932;52.400;9.558;2023-01-28T08:56:27;102362.63;;;7.96;52.81
5812;BME280;2932;52.400;9.558;2023-01-28T08:58:54;102364.16;;;7.09;51.61
5812;BME280;2932;52.400;9.558;2023-01-28T09:01:19;102367.78;;;6.84;52.27
5812;BME280;2932;52.400;9.558;2023-01-28T09:03:45;102377.91;;;7.19;53.04
5812;BME280;2932;52.400;9.558;2023-01-28T09:06:10;102381.78;;;7.08;53.33
5812;BME280;2932;52.400;9.558;2023-01-28T09:08:35;102393.47;;;7.49;52.34
5812;BME280;2932;52.400;9.558;2023-01-28T09:11:01;102393.78;;;7.42;51.97
5812;BME280;2932;52.400;9.558;2023-01-28T09:13:26;102396.63;;;7.07;52.20
5812;BME280;2932;52.400;9.558;2023-01-28T09:15:52;102395.53;;;7.18;52.48
5812;BME280;2932;52.400;9.558;2023-01-28T09:18:18;102402.97;;;7.12;52.57
5812;BME280;2932;52.400;9.558;2023-01-28T09:20:43;102392.78;;;7.18;52.32
5812;BME280;2932;52.400;9.558;2023-01-28T09:23:10;102388.91;;;7.19;52.31
5812;BME280;2932;52.400;9.558;2023-01-28T09:25:35;102404.25;;;7.35;52.13
5812;BME280;2932;52.400;9.558;2023-01-28T09:28:01;102402.69;;;7.14;52.08
5812;BME280;2932;52.400;9.558;2023-01-28T09:30:27;102417.81;;;7.11;52.54
5812;BME280;2932;52.400;9.558;2023-01-28T09:32:53;102418.00;;;7.40;52.26
5812;BME280;2932;52.400;9.558;2023-01-28T09:35:19;102416.09;;;7.41;52.33
5812;BME280;2932;52.400;9.558;2023-01-28T09:37:45;102417.50;;;7.28;52.67
5812;BME280;2932;52.400;9.558;2023-01-28T09:40:17;102417.00;;;7.16;52.60
5812;BME280;2932;52.400;9.558;2023-01-28T09:45:32;102417.81;;;7.11;52.57
5812;BME280;2932;52.400;9.558;2023-01-28T09:48:01;102422.69;;;7.40;52.64
5812;BME280;2932;52.400;9.558;2023-01-28T09:50:34;102426.78;;;7.52;52.54
5812;BME280;2932;52.400;9.558;2023-01-28T09:53:46;102426.81;;;7.42;52.80
5812;BME280;2932;52.400;9.558;2023-01-28T09:56:21;102435.88;;;7.48;52.37
5812;BME280;2932;52.400;9.558;2023-01-28T09:58:49;102421.84;;;7.44;51.97
5812;BME280;2932;52.400;9.558;2023-01-28T10:01:46;102420.22;;;7.38;52.17
5812;BME280;2932;52.400;9.558;2023-01-28T10:07:00;102409.78;;;7.25;52.31
5812;BME280;2932;52.400;9.558;2023-01-28T10:19:52;102403.03;;;6.51;52.68
5812;BME280;2932;52.400;9.558;2023-01-28T10:22:23;102413.22;;;6.56;53.53
5812;BME280;2932;52.400;9.558;2023-01-28T10:24:56;102417.28;;;6.99;53.14
5812;BME280;2932;52.400;9.558;2023-01-28T10:27:23;102407.28;;;7.33;52.20
5812;BME280;2932;52.400;9.558;2023-01-28T10:29:52;102408.38;;;7.43;52.02
5812;BME280;2932;52.400;9.558;2023-01-28T10:32:32;102420.63;;;7.76;51.48
5812;BME280;2932;52.400;9.558;2023-01-28T10:35:01;102428.91;;;7.70;51.65
5812;BME280;2932;52.400;9.558;2023-01-28T10:37:30;102417.41;;;7.58;51.79
5812;BME280;2932;52.400;9.558;2023-01-28T10:39:59;102422.81;;;7.79;51.63
5812;BME280;2932;52.400;9.558;2023-01-28T10:42:33;102426.44;;;7.64;51.68
5812;BME280;2932;52.400;9.558;2023-01-28T10:45:12;102420.66;;;7.60;51.96
5812;BME280;2932;52.400;9.558;2023-01-28T10:50:55;102415.75;;;7.57;51.59
5812;BME280;2932;52.400;9.558;2023-01-28T10:53:33;102415.75;;;7.57;51.46
5812;BME280;2932;52.400;9.558;2023-01-28T10:55:59;102431.66;;;7.65;51.39
5812;BME280;2932;52.400;9.558;2023-01-28T10:58:27;102415.97;;;7.61;51.38
5812;BME280;2932;52.400;9.558;2023-01-28T11:00:59;102415.97;;;7.66;51.73
5812;BME280;2932;52.400;9.558;2023-01-28T11:03:25;102404.75;;;7.52;51.54
5812;BME280;2932;52.400;9.558;2023-01-28T11:05:58;102412.47;;;7.50;52.06
5812;BME280;2932;52.400;9.558;2023-01-28T11:08:26;102409.72;;;7.50;52.14
5812;BME280;2932;52.400;9.558;2023-01-28T11:10:53;102405.88;;;7.46;52.23
5812;BME280;2932;52.400;9.558;2023-01-28T11:16:17;102405.03;;;7.51;52.32
5812;BME280;2932;52.400;9.558;2023-01-28T11:19:03;102400.94;;;7.38;52.35
5812;BME280;2932;52.400;9.558;2023-01-28T11:21:30;102394.38;;;7.24;52.66
5812;BME280;2932;52.400;9.558;2023-01-28T11:24:13;102400.38;;;7.41;52.71
5812;BME280;2932;52.400;9.558;2023-01-28T11:26:43;102404.78;;;7.47;52.52
5812;BME280;2932;52.400;9.558;2023-01-28T11:31:50;102390.47;;;7.45;52.00
5812;BME280;2932;52.400;9.558;2023-01-28T11:34:17;102384.00;;;7.70;51.93
5812;BME280;2932;52.400;9.558;2023-01-28T11:36:51;102381.47;;;7.79;51.66
5812;BME280;2932;52.400;9.558;2023-01-28T11:39:24;102379.47;;;7.94;51.57
5812;BME280;2932;52.400;9.558;2023-01-28T11:41:52;102382.00;;;7.86;51.49
5812;BME280;2932;52.400;9.558;2023-01-28T11:44:21;102372.78;;;6.72;52.12
5812;BME280;2932;52.400;9.558;2023-01-28T11:52:26;102365.03;;;9.23;50.42
5812;BME280;2932;52.400;9.558;2023-01-28T11:58:08;102360.34;;;12.06;44.23
5812;BME280;2932;52.400;9.558;2023-01-28T12:06:03;102343.81;;;12.46;42.31
5812;BME280;2932;52.400;9.558;2023-01-28T12:11:18;102333.91;;;8.94;47.24
5812;BME280;2932;52.400;9.558;2023-01-28T12:14:38;102320.78;;;11.15;44.74
5812;BME280;2932;52.400;9.558;2023-01-28T12:25:41;102244.69;;;18.23;35.33
5812;BME280;2932;52.400;9.558;2023-01-28T12:28:30;102247.09;;;16.11;37.11
5812;BME280;2932;52.400;9.558;2023-01-28T12:39:04;102212.56;;;20.31;32.87
5812;BME280;2932;52.400;9.558;2023-01-28T12:41:39;102208.72;;;18.25;34.67
5812;BME280;2932;52.400;9.558;2023-01-28T12:44:13;102212.88;;;18.16;35.55
5812;BME280;2932;52.400;9.558;2023-01-28T12:47:19;102226.97;;;16.87;35.77
5812;BME280;2932;52.400;9.558;2023-01-28T12:49:55;102233.09;;;16.31;36.41
5812;BME280;2932;52.400;9.558;2023-01-28T12:52:38;102246.88;;;16.16;36.77
5812;BME280;2932;52.400;9.558;2023-01-28T12:57:36;102252.34;;;15.79;37.84
5812;BME280;2932;52.400;9.558;2023-01-28T13:00:33;102232.59;;;15.84;36.57
5812;BME280;2932;52.400;9.558;2023-01-28T13:06:16;102231.22;;;12.22;41.07
5812;BME280;2932;52.400;9.558;2023-01-28T13:08:46;102241.69;;;12.65;41.40
5812;BME280;2932;52.400;9.558;2023-01-28T13:11:16;102246.47;;;12.42;41.72
5812;BME280;2932;52.400;9.558;2023-01-28T13:13:44;102254.72;;;12.02;42.52
5812;BME280;2932;52.400;9.558;2023-01-28T13:16:11;102248.97;;;15.44;39.00
5812;BME280;2932;52.400;9.558;2023-01-28T13:23:41;102237.31;;;18.03;34.50
5812;BME280;2932;52.400;9.558;2023-01-28T13:26:26;102260.38;;;18.56;35.17
5812;BME280;2932;52.400;9.558;2023-01-28T13:28:56;102258.91;;;18.30;34.78
5812;BME280;2932;52.400;9.558;2023-01-28T13:31:39;102286.97;;;15.78;36.99
5812;BME280;2932;52.400;9.558;2023-01-28T13:34:07;102277.56;;;19.17;34.43
5812;BME280;2932;52.400;9.558;2023-01-28T13:41:37;102284.88;;;16.29;37.54
5812;BME280;2932;52.400;9.558;2023-01-28T13:44:03;102283.94;;;16.04;37.41
5812;BME280;2932;52.400;9.558;2023-01-28T13:46:30;102274.88;;;18.89;35.07
5812;BME280;2932;52.400;9.558;2023-01-28T13:48:57;102278.09;;;21.83;32.26
5812;BME280;2932;52.400;9.558;2023-01-28T13:51:30;102270.28;;;22.40;31.08
5812;BME280;2932;52.400;9.558;2023-01-28T13:54:03;102270.38;;;19.71;32.14
5812;BME280;2932;52.400;9.558;2023-01-28T13:56:41;102264.94;;;17.24;34.83
5812;BME280;2932;52.400;9.558;2023-01-28T14:04:59;102249.47;;;20.29;32.48
5812;BME280;2932;52.400;9.558;2023-01-28T14:07:37;102240.69;;;20.54;32.25
5812;BME280;2932;52.400;9.558;2023-01-28T14:18:37;102201.81;;;21.09;32.35
5812;BME280;2932;52.400;9.558;2023-01-28T14:21:11;102208.16;;;20.11;33.33
5812;BME280;2932;52.400;9.558;2023-01-28T14:23:43;102206.63;;;19.36;33.92
5812;BME280;2932;52.400;9.558;2023-01-28T14:26:33;102219.00;;;19.70;33.36
5812;BME280;2932;52.400;9.558;2023-01-28T14:31:35;102225.59;;;19.78;33.21
5812;BME280;2932;52.400;9.558;2023-01-28T14:36:36;102251.81;;;16.76;35.83
5812;BME280;2932;52.400;9.558;2023-01-28T14:39:02;102257.81;;;18.35;34.69
5812;BME280;2932;52.400;9.558;2023-01-28T14:41:30;102251.84;;;17.93;35.17
5812;BME280;2932;52.400;9.558;2023-01-28T14:43:56;102242.03;;;17.59;35.73
5812;BME280;2932;52.400;9.558;2023-01-28T14:46:34;102237.56;;;19.55;33.82
5812;BME280;2932;52.400;9.558;2023-01-28T14:49:33;102240.72;;;19.19;34.15
5812;BME280;2932;52.400;9.558;2023-01-28T14:52:24;102237.75;;;20.47;33.09
5812;BME280;2932;52.400;9.558;2023-01-28T14:57:48;102239.94;;;19.03;33.08
5812;BME280;2932;52.400;9.558;2023-01-28T15:00:28;102254.72;;;17.69;34.94
5812;BME280;2932;52.400;9.558;2023-01-28T15:02:54;102251.13;;;16.79;35.96
5812;BME280;2932;52.400;9.558;2023-01-28T15:05:26;102261.66;;;15.83;37.04
5812;BME280;2932;52.400;9.558;2023-01-28T15:07:53;102274.72;;;12.66;40.98
5812;BME280;2932;52.400;9.558;2023-01-28T15:10:28;102282.13;;;13.28;41.36
5812;BME280;2932;52.400;9.558;2023-01-28T15:13:04;102276.13;;;15.06;39.42
5812;BME280;2932;52.400;9.558;2023-01-28T15:15:38;102278.81;;;15.23;39.06
5812;BME280;2932;52.400;9.558;2023-01-28T15:18:31;102269.47;;;12.65;41.72
5812;BME280;2932;52.400;9.558;2023-01-28T15:20:58;102290.31;;;11.15;44.63
5812;BME280;2932;52.400;9.558;2023-01-28T15:23:31;102281.50;;;10.72;44.80
5812;BME280;2932;52.400;9.558;2023-01-28T15:25:57;102282.50;;;10.89;45.36
5812;BME280;2932;52.400;9.558;2023-01-28T15:28:29;102293.41;;;9.32;47.47